createdAt,value
2023-01-22T00:02:09.237Z,99.99
2023-01-22T00:04:39.950Z,99.99
2023-01-22T00:07:10.431Z,99.99
2023-01-22T00:09:40.736Z,99.99
2023-01-22T00:12:11.296Z,99.99
2023-01-22T00:15:00.841Z,99.99
2023-01-22T00:17:31.984Z,99.99
2023-01-22T00:20:02.298Z,99.99
2023-01-22T00:22:32.535Z,99.99
2023-01-22T00:25:02.989Z,99.99
2023-01-22T00:27:33.219Z,99.99
2023-01-22T00:30:03.769Z,99.99
2023-01-22T00:32:34.005Z,99.99
2023-01-22T00:35:04.616Z,99.99
2023-01-22T00:37:34.777Z,99.99
2023-01-22T00:40:04.816Z,99.99
2023-01-22T00:42:35.059Z,99.99
2023-01-22T00:45:05.242Z,99.99
2023-01-22T00:47:36.884Z,99.99
2023-01-22T00:50:08.745Z,99.99
2023-01-22T00:52:38.942Z,99.99
2023-01-22T00:55:08.925Z,99.99
2023-01-22T00:57:39.069Z,99.99
2023-01-22T01:00:10.329Z,99.99
2023-01-22T01:03:01.351Z,99.99
2023-01-22T01:05:34.120Z,99.99
2023-01-22T01:08:04.431Z,99.99
2023-01-22T01:10:34.792Z,99.99
2023-01-22T01:13:05.576Z,99.99
2023-01-22T01:15:37.058Z,99.99
2023-01-22T01:18:07.412Z,99.99
2023-01-22T01:20:37.707Z,99.99
2023-01-22T01:23:08.240Z,99.99
2023-01-22T01:25:43.762Z,99.99
2023-01-22T01:28:13.896Z,99.99
2023-01-22T01:30:43.841Z,99.99
2023-01-22T01:33:14.061Z,99.99
2023-01-22T01:35:45.131Z,99.99
2023-01-22T01:38:15.447Z,99.99
2023-01-22T01:40:46.007Z,99.99
2023-01-22T01:43:19.895Z,99.99
2023-01-22T01:45:50.568Z,99.99
2023-01-22T01:48:43.572Z,99.99
2023-01-22T01:51:34.930Z,99.99
2023-01-22T01:54:06.809Z,99.99
2023-01-22T01:56:41.018Z,99.99
2023-01-22T01:59:15.793Z,99.99
2023-01-22T02:01:54.318Z,99.99
2023-01-22T02:04:25.982Z,99.99
2023-01-22T02:06:56.995Z,99.99
2023-01-22T02:09:28.867Z,99.99
2023-01-22T02:11:59.517Z,99.99
2023-01-22T02:14:34.050Z,99.99
2023-01-22T02:17:13.388Z,99.99
2023-01-22T02:19:45.269Z,99.99
2023-01-22T02:22:17.733Z,99.99
2023-01-22T02:24:49.380Z,99.99
2023-01-22T02:27:20.960Z,99.99
2023-01-22T02:29:52.610Z,99.99
2023-01-22T02:32:23.189Z,99.99
2023-01-22T02:34:54.882Z,99.99
2023-01-22T02:37:25.197Z,99.99
2023-01-22T02:39:56.918Z,99.99
2023-01-22T02:42:29.229Z,99.99
2023-01-22T02:44:59.424Z,99.99
2023-01-22T02:47:29.955Z,99.99
2023-01-22T02:49:59.684Z,99.99
2023-01-22T02:52:29.876Z,99.99
2023-01-22T02:55:00.199Z,99.99
2023-01-22T02:57:32.612Z,99.99
2023-01-22T03:00:03.536Z,99.99
2023-01-22T03:02:33.999Z,99.99
2023-01-22T03:05:07.198Z,99.99
2023-01-22T03:07:45.898Z,99.99
2023-01-22T03:10:19.412Z,99.99
2023-01-22T03:13:08.330Z,99.99
2023-01-22T03:16:00.559Z,99.99
2023-01-22T03:18:49.304Z,99.99
2023-01-22T03:21:22.691Z,99.99
2023-01-22T03:23:55.241Z,99.99
2023-01-22T03:26:25.958Z,99.99
2023-01-22T03:28:56.380Z,99.99
2023-01-22T03:31:26.651Z,99.99
2023-01-22T03:33:56.886Z,99.99
2023-01-22T03:36:46.492Z,99.99
2023-01-22T03:39:16.928Z,99.99
2023-01-22T03:41:47.812Z,99.99
2023-01-22T03:44:18.815Z,99.99
2023-01-22T03:46:51.054Z,99.99
2023-01-22T03:49:21.471Z,99.99
2023-01-22T03:51:54.979Z,99.99
2023-01-22T03:54:27.398Z,99.99
2023-01-22T03:56:59.916Z,99.99
2023-01-22T03:59:33.806Z,99.99
2023-01-22T04:02:03.522Z,99.99
2023-01-22T04:04:37.312Z,99.99
2023-01-22T04:07:07.889Z,99.99
2023-01-22T04:09:37.622Z,99.99
2023-01-22T04:12:07.563Z,99.99
2023-01-22T04:14:37.914Z,99.99
2023-01-22T04:17:08.056Z,99.99
2023-01-22T04:20:05.662Z,99.99
2023-01-22T04:22:46.951Z,99.99
2023-01-22T04:25:18.172Z,99.99
2023-01-22T04:27:48.770Z,99.99
2023-01-22T04:30:22.032Z,99.99
2023-01-22T04:32:58.961Z,99.99
2023-01-22T04:35:54.471Z,99.99
2023-01-22T04:38:25.125Z,99.99
2023-01-22T04:40:55.269Z,99.99
2023-01-22T04:43:25.826Z,99.99
2023-01-22T04:45:56.101Z,99.99
2023-01-22T04:48:31.646Z,99.99
2023-01-22T04:51:02.928Z,99.99
2023-01-22T04:53:35.118Z,99.99
2023-01-22T04:56:05.786Z,99.99
2023-01-22T04:58:37.142Z,99.99
2023-01-22T05:01:08.225Z,99.99
2023-01-22T05:03:38.465Z,99.99
2023-01-22T05:06:10.539Z,99.99
2023-01-22T05:08:41.985Z,99.99
2023-01-22T05:11:13.425Z,99.99
2023-01-22T05:13:57.397Z,99.99
2023-01-22T05:16:27.163Z,99.99
2023-01-22T05:18:57.207Z,99.99
2023-01-22T05:21:27.135Z,99.99
2023-01-22T05:23:57.372Z,99.99
2023-01-22T05:26:30.326Z,99.99
2023-01-22T05:29:10.816Z,99.99
2023-01-22T05:32:00.494Z,99.99
2023-01-22T05:34:34.519Z,99.99
2023-01-22T05:37:05.057Z,99.99
2023-01-22T05:39:37.507Z,99.99
2023-01-22T05:42:16.167Z,99.99
2023-01-22T05:44:49.967Z,99.99
2023-01-22T05:47:23.791Z,99.99
2023-01-22T05:50:20.149Z,99.99
2023-01-22T05:52:55.092Z,99.99
2023-01-22T05:55:25.381Z,99.99
2023-01-22T05:57:55.665Z,99.99
2023-01-22T06:00:27.101Z,99.99
2023-01-22T06:03:16.738Z,99.99
2023-01-22T06:06:03.647Z,99.99
2023-01-22T06:08:35.353Z,99.99
2023-01-22T06:11:07.419Z,99.99
2023-01-22T06:13:38.403Z,99.99
2023-01-22T06:16:18.898Z,99.99
2023-01-22T06:19:09.475Z,99.99
2023-01-22T06:21:54.565Z,99.99
2023-01-22T06:24:38.472Z,99.99
2023-01-22T06:27:10.514Z,99.99
2023-01-22T06:29:51.154Z,99.99
2023-01-22T06:32:21.395Z,99.99
2023-01-22T06:34:51.193Z,99.99
2023-01-22T06:37:23.028Z,99.99
2023-01-22T06:39:54.758Z,99.99
2023-01-22T06:42:29.482Z,99.99
2023-01-22T06:44:59.948Z,99.99
2023-01-22T06:47:33.299Z,99.99
2023-01-22T06:50:05.318Z,99.99
2023-01-22T06:52:36.995Z,99.99
2023-01-22T06:55:06.957Z,99.99
2023-01-22T06:57:40.590Z,99.99
2023-01-22T07:00:11.876Z,99.99
2023-01-22T07:02:42.283Z,99.99
2023-01-22T07:05:12.564Z,99.99
2023-01-22T07:07:45.796Z,99.99
2023-01-22T07:10:16.588Z,99.99
2023-01-22T07:12:46.662Z,99.99
2023-01-22T07:15:16.753Z,99.99
2023-01-22T07:17:56.258Z,99.99
2023-01-22T07:20:26.639Z,99.99
2023-01-22T07:23:00.754Z,99.99
2023-01-22T07:25:31.232Z,99.99
2023-01-22T07:28:02.836Z,99.99
2023-01-22T07:30:33.448Z,99.99
2023-01-22T07:33:04.591Z,99.99
2023-01-22T07:35:35.077Z,99.99
2023-01-22T07:38:05.308Z,99.99
2023-01-22T07:40:35.585Z,99.99
2023-01-22T07:43:09.249Z,99.99
2023-01-22T07:45:39.535Z,99.99
2023-01-22T07:48:11.991Z,99.99
2023-01-22T07:50:42.308Z,99.99
2023-01-22T07:53:13.046Z,99.99
2023-01-22T07:55:43.942Z,99.99
2023-01-22T07:58:14.227Z,99.99
2023-01-22T08:00:44.564Z,99.99
2023-01-22T08:03:17.629Z,99.99
2023-01-22T08:05:47.866Z,99.99
2023-01-22T08:08:21.451Z,99.99
2023-01-22T08:10:51.715Z,99.99
2023-01-22T08:13:21.772Z,99.99
2023-01-22T08:15:51.657Z,99.99
2023-01-22T08:18:22.945Z,99.99
2023-01-22T08:20:53.236Z,99.99
2023-01-22T08:23:22.925Z,99.99
2023-01-22T08:25:53.088Z,99.99
2023-01-22T08:28:22.734Z,99.99
2023-01-22T08:30:52.598Z,99.99
2023-01-22T08:33:23.802Z,99.99
2023-01-22T08:35:54.249Z,99.99
2023-01-22T08:38:24.725Z,99.99
2023-01-22T08:40:55.127Z,99.99
2023-01-22T08:43:25.408Z,99.99
2023-01-22T08:45:55.549Z,99.99
2023-01-22T08:48:26.121Z,99.99
2023-01-22T08:50:57.625Z,99.99
2023-01-22T08:53:28.152Z,99.99
2023-01-22T08:55:58.354Z,99.99
2023-01-22T08:58:29.139Z,99.99
2023-01-22T09:01:00.485Z,99.99
2023-01-22T09:03:31.018Z,99.99
2023-01-22T09:06:01.186Z,99.99
2023-01-22T09:08:30.884Z,99.99
2023-01-22T09:11:01.117Z,99.99
2023-01-22T09:13:31.482Z,99.99
2023-01-22T09:16:01.346Z,99.99
2023-01-22T09:18:31.555Z,99.99
2023-01-22T09:21:01.380Z,99.99
2023-01-22T09:23:31.622Z,99.99
2023-01-22T09:26:03.364Z,99.99
2023-01-22T09:28:35.839Z,99.99
2023-01-22T09:31:06.638Z,99.99
2023-01-22T09:33:36.889Z,99.99
2023-01-22T09:36:10.428Z,99.99
2023-01-22T09:38:41.313Z,99.99
2023-01-22T09:41:20.582Z,99.99
2023-01-22T09:43:53.505Z,99.99
2023-01-22T09:46:41.079Z,99.99
2023-01-22T09:49:20.111Z,99.99
2023-01-22T09:52:02.284Z,99.99
2023-01-22T09:54:34.625Z,99.99
2023-01-22T09:57:10.429Z,99.99
2023-01-22T09:59:51.378Z,99.99
2023-01-22T10:02:37.799Z,99.99
2023-01-22T10:05:34.636Z,99.99
2023-01-22T10:08:19.251Z,99.99
2023-01-22T10:10:51.704Z,99.99
2023-01-22T10:13:27.060Z,99.99
2023-01-22T10:15:58.405Z,99.99
2023-01-22T10:18:52.403Z,99.99
2023-01-22T10:21:32.484Z,99.99
2023-01-22T10:24:02.901Z,99.99
2023-01-22T10:26:53.907Z,99.99
2023-01-22T10:29:29.284Z,99.99
2023-01-22T10:32:04.530Z,99.99
2023-01-22T10:34:38.900Z,99.99
2023-01-22T10:37:17.817Z,99.99
2023-01-22T10:39:51.669Z,99.99
2023-01-22T10:42:27.580Z,99.99
2023-01-22T10:45:20.274Z,99.99
2023-01-22T10:47:50.414Z,99.99
2023-01-22T10:50:20.999Z,99.99
2023-01-22T10:52:55.963Z,99.99
2023-01-22T10:55:32.000Z,99.99
2023-01-22T10:58:09.096Z,99.99
2023-01-22T11:00:51.550Z,99.99
2023-01-22T11:03:25.276Z,99.99
2023-01-22T11:06:03.208Z,99.51
2023-01-22T11:09:09.430Z,99.99
2023-01-22T11:11:44.367Z,99.99
2023-01-22T11:14:39.781Z,99.99
2023-01-22T11:17:28.056Z,99.99
2023-01-22T11:20:27.782Z,99.99
2023-01-22T11:23:06.587Z,99.99
2023-01-22T11:26:08.091Z,99.72
2023-01-22T11:28:59.757Z,99.29
2023-01-22T11:31:56.735Z,99.12
2023-01-22T11:34:38.620Z,99.78
2023-01-22T11:37:18.116Z,99.68
2023-01-22T11:40:06.307Z,98.85
2023-01-22T11:42:54.651Z,97.68
2023-01-22T11:45:49.013Z,99.68
2023-01-22T11:48:46.031Z,99.01
2023-01-22T11:51:35.159Z,97.35
2023-01-22T11:54:13.859Z,98.76
2023-01-22T11:57:17.602Z,98.22
2023-01-22T11:59:59.789Z,95.60
2023-01-22T12:02:55.599Z,96.84
2023-01-22T12:05:38.742Z,96.23
2023-01-22T12:08:41.220Z,95.74
2023-01-22T12:11:45.141Z,97.14
2023-01-22T12:14:52.743Z,97.09
2023-01-22T12:17:53.698Z,94.86
2023-01-22T12:21:02.248Z,95.24
2023-01-22T12:23:45.014Z,92.73
2023-01-22T12:26:44.443Z,93.87
2023-01-22T12:29:32.802Z,92.88
2023-01-22T12:32:14.090Z,93.28
2023-01-22T12:34:56.194Z,92.50
2023-01-22T12:37:35.097Z,92.15
2023-01-22T12:40:28.156Z,91.87
2023-01-22T12:43:02.746Z,92.51
2023-01-22T12:45:51.761Z,90.79
2023-01-22T12:48:39.747Z,91.99
2023-01-22T12:51:29.479Z,92.24
2023-01-22T12:54:11.927Z,90.84
2023-01-22T12:56:41.685Z,90.91
2023-01-22T12:59:37.520Z,89.31
2023-01-22T13:02:36.676Z,88.38
2023-01-22T13:05:27.998Z,89.21
2023-01-22T13:08:22.665Z,87.36
2023-01-22T13:11:01.363Z,86.41
2023-01-22T13:13:41.819Z,87.42
2023-01-22T13:16:26.495Z,87.16
2023-01-22T13:19:00.602Z,86.98
2023-01-22T13:21:33.977Z,85.34
2023-01-22T13:24:15.267Z,87.03
2023-01-22T13:26:53.932Z,86.12
2023-01-22T13:29:30.363Z,85.11
2023-01-22T13:32:03.188Z,85.50
2023-01-22T13:34:33.835Z,84.23
2023-01-22T13:37:04.104Z,83.33
2023-01-22T13:39:35.740Z,83.13
2023-01-22T13:42:07.450Z,82.67
2023-01-22T13:44:49.159Z,80.53
2023-01-22T13:47:35.630Z,80.87
2023-01-22T13:50:06.414Z,81.19
2023-01-22T13:52:36.658Z,82.13
2023-01-22T13:55:13.963Z,82.78
2023-01-22T13:57:50.677Z,80.76
2023-01-22T14:00:37.684Z,82.11
2023-01-22T14:03:28.376Z,81.75
2023-01-22T14:06:12.519Z,81.75
2023-01-22T14:08:51.204Z,79.09
2023-01-22T14:11:22.099Z,80.59
2023-01-22T14:13:54.262Z,80.27
2023-01-22T14:16:24.614Z,81.05
2023-01-22T14:18:54.818Z,80.89
2023-01-22T14:21:24.829Z,78.20
2023-01-22T14:23:54.294Z,80.88
2023-01-22T14:26:24.174Z,83.11
2023-01-22T14:28:54.426Z,84.75
2023-01-22T14:31:24.779Z,84.71
2023-01-22T14:33:54.242Z,85.33
2023-01-22T14:36:24.107Z,82.06
2023-01-22T14:38:56.151Z,79.75
2023-01-22T14:41:26.411Z,82.97
2023-01-22T14:43:56.689Z,83.91
2023-01-22T14:46:26.846Z,81.24
2023-01-22T14:48:56.918Z,79.82
2023-01-22T14:51:26.987Z,82.73
2023-01-22T14:53:58.660Z,81.57
2023-01-22T14:56:28.943Z,79.71
2023-01-22T14:58:58.452Z,77.44
2023-01-22T15:01:28.296Z,78.14
2023-01-22T15:03:58.673Z,76.49
2023-01-22T15:06:28.852Z,77.67
2023-01-22T15:08:59.233Z,77.77
2023-01-22T15:11:29.457Z,76.17
2023-01-22T15:13:59.650Z,75.47
2023-01-22T15:16:29.814Z,76.91
2023-01-22T15:18:59.774Z,76.04
2023-01-22T15:21:29.743Z,78.39
2023-01-22T15:23:59.324Z,79.57
2023-01-22T15:26:36.567Z,79.56
2023-01-22T15:29:26.099Z,79.02
2023-01-22T15:46:45.685Z,75.88
2023-01-22T15:49:16.557Z,76.87
2023-01-22T15:51:46.862Z,75.79
2023-01-22T15:54:18.236Z,77.89
2023-01-22T15:56:48.786Z,78.30
2023-01-22T15:59:18.988Z,76.87
2023-01-22T16:01:49.493Z,75.27
2023-01-22T16:04:19.690Z,76.24
2023-01-22T16:06:50.031Z,73.58
2023-01-22T16:09:20.387Z,74.32
2023-01-22T16:11:51.445Z,72.09
2023-01-22T16:14:21.785Z,72.16
2023-01-22T16:16:51.913Z,71.37
2023-01-22T16:19:22.183Z,72.16
2023-01-22T16:21:54.182Z,72.42
2023-01-22T16:24:24.430Z,75.35
2023-01-22T16:26:54.014Z,71.13
2023-01-22T16:29:26.208Z,71.72
2023-01-22T16:32:15.641Z,70.99
2023-01-22T16:34:45.894Z,68.54
2023-01-22T16:37:16.168Z,69.48
2023-01-22T16:39:46.346Z,69.51
2023-01-22T16:42:16.449Z,69.66
2023-01-22T16:44:46.633Z,69.00
2023-01-22T16:47:17.037Z,68.62
2023-01-22T16:49:47.295Z,69.68
2023-01-22T16:52:22.955Z,68.99
2023-01-22T16:54:52.817Z,67.83
2023-01-22T16:57:23.023Z,71.53
2023-01-22T16:59:53.282Z,69.27
2023-01-22T17:02:23.434Z,67.86
2023-01-22T17:04:54.579Z,68.24
2023-01-22T17:07:33.681Z,66.16
2023-01-22T17:10:04.565Z,67.48
2023-01-22T17:12:35.062Z,70.58
2023-01-22T17:15:05.358Z,70.59
2023-01-22T17:17:35.774Z,67.93
2023-01-22T17:20:06.185Z,69.28
2023-01-22T17:22:37.213Z,70.23
2023-01-22T17:25:07.932Z,66.77
2023-01-22T17:27:38.215Z,69.56
2023-01-22T17:30:10.163Z,64.47
2023-01-22T17:32:41.205Z,67.57
2023-01-22T17:35:12.649Z,67.65
2023-01-22T17:37:43.660Z,66.60
2023-01-22T17:40:14.267Z,66.50
2023-01-22T17:42:44.537Z,66.63
2023-01-22T17:45:14.724Z,68.31
2023-01-22T17:47:46.007Z,70.37
2023-01-22T17:50:16.342Z,67.33
2023-01-22T17:52:46.579Z,69.48
2023-01-22T17:55:17.288Z,66.28
2023-01-22T17:58:07.114Z,66.56
2023-01-22T18:00:39.035Z,69.03
2023-01-22T18:03:09.553Z,70.24
2023-01-22T18:05:39.668Z,67.51
2023-01-22T18:08:09.986Z,67.61
2023-01-22T18:10:41.491Z,65.93
2023-01-22T18:13:11.763Z,66.43
2023-01-22T18:15:47.843Z,65.56
2023-01-22T18:18:17.908Z,66.96
2023-01-22T18:20:48.147Z,65.06
2023-01-22T18:23:18.720Z,65.63
2023-01-22T18:25:57.496Z,66.41
2023-01-22T18:28:28.468Z,67.04
2023-01-22T18:31:14.656Z,65.61
2023-01-22T18:33:47.484Z,66.50
2023-01-22T18:36:19.979Z,67.86
2023-01-22T18:38:50.581Z,66.11
2023-01-22T18:41:24.908Z,64.72
2023-01-22T18:44:00.870Z,65.06
2023-01-22T18:46:46.128Z,61.62
2023-01-22T18:49:19.726Z,62.21
2023-01-22T18:51:50.270Z,59.11
2023-01-22T18:54:20.490Z,61.45
2023-01-22T18:56:51.015Z,61.70
2023-01-22T18:59:21.391Z,61.03
2023-01-22T19:01:52.999Z,63.93
2023-01-22T19:04:23.635Z,61.17
2023-01-22T19:06:55.241Z,60.98
2023-01-22T19:09:28.022Z,63.07
2023-01-22T19:11:59.469Z,61.81
2023-01-22T19:14:29.860Z,59.90
2023-01-22T19:17:00.272Z,60.84
2023-01-22T19:19:30.533Z,60.20
2023-01-22T19:22:01.060Z,60.46
2023-01-22T19:24:33.459Z,61.25
2023-01-22T19:27:05.092Z,62.36
2023-01-22T19:29:35.294Z,61.62
2023-01-22T19:32:05.583Z,62.07
2023-01-22T19:34:35.801Z,63.66
2023-01-22T19:37:07.627Z,62.34
2023-01-22T19:39:40.283Z,64.39
2023-01-22T19:42:12.033Z,63.96
2023-01-22T19:44:44.031Z,63.65
2023-01-22T19:47:15.054Z,65.36
2023-01-22T19:49:45.256Z,66.14
2023-01-22T19:52:15.783Z,67.56
2023-01-22T19:54:49.274Z,69.24
2023-01-22T19:57:19.542Z,68.69
2023-01-22T19:59:54.544Z,67.15
2023-01-22T20:02:25.275Z,67.43
2023-01-22T20:04:56.023Z,69.46
2023-01-22T20:07:26.458Z,68.35
2023-01-22T20:09:56.804Z,67.87
2023-01-22T20:12:27.072Z,68.26
2023-01-22T20:14:57.372Z,69.74
2023-01-22T20:17:28.085Z,69.96
2023-01-22T20:19:58.358Z,68.64
2023-01-22T20:22:28.496Z,69.38
2023-01-22T20:24:58.822Z,68.50
2023-01-22T20:27:29.100Z,69.39
2023-01-22T20:29:59.264Z,68.50
2023-01-22T20:32:31.192Z,69.58
2023-01-22T20:35:01.808Z,69.51
2023-01-22T20:37:32.054Z,69.25
2023-01-22T20:40:02.484Z,69.51
2023-01-22T20:42:32.591Z,70.24
2023-01-22T20:45:02.992Z,71.01
2023-01-22T20:47:37.043Z,69.45
2023-01-22T20:50:08.140Z,70.26
2023-01-22T20:52:38.497Z,69.28
2023-01-22T20:55:11.251Z,69.51
2023-01-22T20:57:41.419Z,69.59
2023-01-22T21:00:12.621Z,69.74
2023-01-22T21:02:42.775Z,70.33
2023-01-22T21:05:12.295Z,69.26
2023-01-22T21:07:42.350Z,71.19
2023-01-22T21:10:14.524Z,70.68
2023-01-22T21:12:46.784Z,71.02
2023-01-22T21:15:17.317Z,71.02
2023-01-22T21:17:47.453Z,70.92
2023-01-22T21:20:18.205Z,71.44
2023-01-22T21:22:48.977Z,71.79
2023-01-22T21:25:19.176Z,71.23
2023-01-22T21:27:51.064Z,70.61
2023-01-22T21:30:21.761Z,71.41
2023-01-22T21:32:53.387Z,72.27
2023-01-22T21:35:23.993Z,72.35
2023-01-22T21:37:54.220Z,72.02
2023-01-22T21:40:24.518Z,71.44
2023-01-22T21:43:29.975Z,71.06
2023-01-22T21:46:21.179Z,71.92
2023-01-22T21:48:51.448Z,71.53
2023-01-22T21:51:21.955Z,71.45
2023-01-22T21:53:54.858Z,71.11
2023-01-22T21:56:25.944Z,71.84
2023-01-22T21:58:57.724Z,72.26
2023-01-22T22:01:28.083Z,71.39
2023-01-22T22:03:58.156Z,72.31
2023-01-22T22:06:33.815Z,73.01
2023-01-22T22:09:05.857Z,73.27
2023-01-22T22:11:36.565Z,74.10
2023-01-22T22:14:08.983Z,74.19
2023-01-22T22:16:40.300Z,75.44
2023-01-22T22:19:10.795Z,75.74
2023-01-22T22:21:41.430Z,77.21
2023-01-22T22:24:13.527Z,76.89
2023-01-22T22:26:43.755Z,77.25
2023-01-22T22:29:13.986Z,76.95
2023-01-22T22:31:44.411Z,79.68
2023-01-22T22:34:14.747Z,78.46
2023-01-22T22:36:44.968Z,81.48
2023-01-22T22:39:15.188Z,78.43
2023-01-22T22:41:45.538Z,78.73
2023-01-22T22:44:17.273Z,79.10
2023-01-22T22:46:47.541Z,81.05
2023-01-22T22:49:17.744Z,79.77
2023-01-22T22:51:48.395Z,80.41
2023-01-22T22:54:21.054Z,79.96
2023-01-22T22:56:52.961Z,81.45
2023-01-22T22:59:23.426Z,80.83
2023-01-22T23:01:53.922Z,81.84
2023-01-22T23:04:24.296Z,82.13
2023-01-22T23:06:55.483Z,82.07
2023-01-22T23:09:25.658Z,82.16
2023-01-22T23:11:57.370Z,82.55
2023-01-22T23:14:27.722Z,82.57
2023-01-22T23:16:59.064Z,82.38
2023-01-22T23:19:29.369Z,83.10
2023-01-22T23:22:01.389Z,82.86
2023-01-22T23:24:33.215Z,83.32
2023-01-22T23:27:03.464Z,83.69
2023-01-22T23:29:33.649Z,82.74
2023-01-22T23:32:03.974Z,83.00
2023-01-22T23:34:34.202Z,83.35
2023-01-22T23:37:03.740Z,82.62
2023-01-22T23:39:33.596Z,83.20
2023-01-22T23:42:03.563Z,83.15
2023-01-22T23:44:33.021Z,82.94
2023-01-22T23:47:03.143Z,83.93
2023-01-22T23:49:33.292Z,84.27
2023-01-22T23:52:03.469Z,83.95
2023-01-22T23:54:33.650Z,84.09
2023-01-22T23:57:03.702Z,84.31
2023-01-22T23:59:33.874Z,86.06
